Conant, Illinois
Current Conditions -  °F | °C
As of 8:55 PM on Wednesday 22 Oct 2014 (Local Time) from KSAR Reporting Station
Moderate Fog Moderate Fog  
Wind Chill: 45°   Ceiling: 500
Heat Index: 45°   Visibility: 0.5mi
Dew Point: 41°   Wind: 0mph
Humidity: 85%   Direction: NA
Pressure: 30.24"   Gusts: NA
Location:  38.0951°N, 89.3926°W
Report Text: KSAR 230155Z AUTO 00000KT 1/2SM FG VV005 07/05 A3024 RMK AO2 T00740050
Loading
Personal Weather Stations






























Interactive Weather Map
Tropical Storm Tracking
New forecast layout! Learn more

10-Day Weather Forecast

Advertisements
Track Severe Weather on mobile